Time;durP1;ratioP1;P1;durP2;ratioP2;P2;SDS_P1;SDS_P2;PMS_P1;PMS_P2;Temp;Humidity;BMP_temperature;BMP_pressure;BME280_temperature;BME280_humidity;BME280_pressure;Samples;Min_cycle;Max_cycle;Signal;HPM_P1;HPM_P2
2023/04/08 00:00:20;;;;;;;20.03;11.50;;;5.60;99.90;;;;;;4963205;28;20299;-71
2023/04/08 00:02:46;;;;;;;17.07;11.67;;;5.60;99.90;;;;;;4962266;28;20228;-74
2023/04/08 00:05:11;;;;;;;15.57;12.13;;;5.50;99.90;;;;;;4965014;28;20196;-72
2023/04/08 00:07:37;;;;;;;16.90;12.50;;;5.60;99.90;;;;;;4965956;28;20239;-72
2023/04/08 00:10:03;;;;;;;19.43;13.17;;;5.50;99.90;;;;;;4965650;28;20721;-73
2023/04/08 00:12:29;;;;;;;18.10;13.30;;;5.60;99.90;;;;;;4969092;28;20574;-71
2023/04/08 00:14:54;;;;;;;21.60;15.23;;;5.60;99.90;;;;;;4968424;28;20208;-70
2023/04/08 00:17:20;;;;;;;17.90;13.53;;;5.60;99.90;;;;;;4965295;28;20201;-70
2023/04/08 00:19:45;;;;;;;18.17;13.60;;;5.60;99.90;;;;;;4966646;28;20296;-70
2023/04/08 00:22:11;;;;;;;24.57;15.17;;;5.60;99.90;;;;;;4965551;28;20220;-71
2023/04/08 00:24:36;;;;;;;18.27;14.07;;;5.60;99.90;;;;;;4969769;28;20251;-72
2023/04/08 00:27:02;;;;;;;24.90;15.63;;;5.60;99.90;;;;;;4969484;28;20715;-70
2023/04/08 00:29:28;;;;;;;20.83;14.87;;;5.60;99.90;;;;;;4969579;28;20209;-72
2023/04/08 00:31:54;;;;;;;21.50;14.97;;;5.60;99.90;;;;;;4968369;28;20200;-70
2023/04/08 00:34:19;;;;;;;23.13;16.07;;;5.50;99.90;;;;;;4969777;28;20267;-70
2023/04/08 00:36:46;;;;;;;24.53;16.40;;;5.50;99.90;;;;;;4969703;28;20213;-69
2023/04/08 00:39:13;;;;;;;25.50;17.50;;;5.50;99.90;;;;;;4968995;28;20201;-69
2023/04/08 00:41:38;;;;;;;21.17;15.67;;;5.50;99.90;;;;;;4968404;28;20213;-70
2023/04/08 00:44:04;;;;;;;26.13;17.60;;;5.60;99.90;;;;;;4969360;28;20209;-69
2023/04/08 00:46:33;;;;;;;22.13;17.30;;;5.60;99.90;;;;;;4968636;28;20208;-69
2023/04/08 00:49:01;;;;;;;25.27;15.30;;;5.50;99.90;;;;;;4970615;28;20433;-69
2023/04/08 00:51:28;;;;;;;23.00;17.73;;;5.50;99.90;;;;;;4969876;28;20228;-68
2023/04/08 00:53:54;;;;;;;28.63;17.33;;;5.50;99.90;;;;;;4969655;28;20211;-69
2023/04/08 00:56:20;;;;;;;26.10;18.97;;;5.50;99.90;;;;;;4967662;28;20607;-70
2023/04/08 00:58:46;;;;;;;25.17;18.40;;;5.50;99.90;;;;;;4970636;28;20241;-68
2023/04/08 01:01:21;;;;;;;27.97;18.00;;;5.50;99.90;;;;;;4968973;28;20192;-68
2023/04/08 01:03:56;;;;;;;30.80;18.10;;;5.50;99.90;;;;;;4967186;28;20213;-66
2023/04/08 01:06:53;;;;;;;24.03;17.37;;;5.50;99.90;;;;;;4973708;28;20205;-66
2023/04/08 01:09:22;;;;;;;24.73;19.20;;;5.50;99.90;;;;;;4969754;28;20733;-67
2023/04/08 01:11:50;;;;;;;30.57;18.40;;;5.60;99.90;;;;;;4973523;28;20213;-68
2023/04/08 01:14:20;;;;;;;27.77;18.63;;;5.50;99.90;;;;;;4962913;28;20194;-68
2023/04/08 01:16:46;;;;;;;31.97;19.57;;;5.50;99.90;;;;;;4959158;28;20216;-69
2023/04/08 01:19:23;;;;;;;31.87;19.63;;;5.50;99.90;;;;;;4961139;28;20296;-69
2023/04/08 01:21:49;;;;;;;26.43;18.93;;;5.50;99.90;;;;;;4971934;28;20205;-68
2023/04/08 01:24:23;;;;;;;34.20;20.70;;;5.50;99.90;;;;;;4967628;28;20280;-69
2023/04/08 01:26:49;;;;;;;30.73;19.87;;;5.50;99.90;;;;;;4968681;28;20206;-69
2023/04/08 01:29:15;;;;;;;34.70;19.00;;;5.50;99.90;;;;;;4968129;28;20555;-70
2023/04/08 01:31:42;;;;;;;32.60;19.13;;;5.50;99.90;;;;;;4967196;28;20268;-70
2023/04/08 01:34:10;;;;;;;31.23;20.60;;;5.50;99.90;;;;;;4963427;28;20240;-71
2023/04/08 01:36:37;;;;;;;30.63;20.23;;;5.50;99.90;;;;;;4970014;28;20239;-70
2023/04/08 01:39:05;;;;;;;33.20;18.53;;;5.50;99.90;;;;;;4967549;28;20213;-70
2023/04/08 01:41:34;;;;;;;40.23;20.77;;;5.50;99.90;;;;;;4968083;28;20205;-70
2023/04/08 01:44:01;;;;;;;34.57;20.43;;;5.50;99.90;;;;;;4967839;28;20272;-78
2023/04/08 01:46:29;;;;;;;32.33;21.10;;;5.50;99.90;;;;;;4971681;28;20229;-72
2023/04/08 01:48:56;;;;;;;32.00;21.03;;;5.60;99.90;;;;;;4965601;28;20398;-73
2023/04/08 01:51:22;;;;;;;36.40;20.60;;;5.60;99.90;;;;;;4977124;28;20216;-72
2023/04/08 01:53:47;;;;;;;37.50;23.23;;;5.60;99.90;;;;;;4965652;28;20209;-71
2023/04/08 01:56:15;;;;;;;33.80;21.53;;;5.60;99.90;;;;;;4969442;28;20297;-72
2023/04/08 01:58:51;;;;;;;36.47;20.80;;;5.60;99.90;;;;;;4967353;28;20207;-72
2023/04/08 02:01:20;;;;;;;35.83;22.53;;;5.70;99.90;;;;;;4974528;28;20211;-73
2023/04/08 02:03:46;;;;;;;35.67;21.33;;;5.70;99.90;;;;;;4966291;28;20252;-72
2023/04/08 02:06:12;;;;;;;32.30;21.47;;;5.70;99.90;;;;;;4966888;28;20663;-72
2023/04/08 02:08:37;;;;;;;41.60;21.93;;;5.70;99.90;;;;;;4966516;28;20208;-72
2023/04/08 02:11:03;;;;;;;35.73;22.27;;;5.70;99.90;;;;;;4964720;28;20666;-73
2023/04/08 02:13:30;;;;;;;39.67;22.77;;;5.70;99.90;;;;;;4967675;28;20202;-73
2023/04/08 02:16:03;;;;;;;36.03;22.13;;;5.70;99.90;;;;;;4968824;28;20217;-71
2023/04/08 02:18:31;;;;;;;30.80;21.33;;;5.70;99.90;;;;;;4966498;28;20577;-72
2023/04/08 02:21:07;;;;;;;39.37;22.07;;;5.70;99.90;;;;;;4966115;28;20220;-73
2023/04/08 02:23:37;;;;;;;30.90;20.43;;;5.70;99.90;;;;;;4965809;28;20809;-70
2023/04/08 02:26:13;;;;;;;36.20;20.60;;;5.70;99.90;;;;;;4967576;28;20313;-72
2023/04/08 02:28:39;;;;;;;31.77;20.27;;;5.70;99.90;;;;;;4968183;28;20279;-72
2023/04/08 02:31:07;;;;;;;30.30;20.43;;;5.70;99.90;;;;;;4967849;28;20212;-72
2023/04/08 02:33:34;;;;;;;34.13;20.57;;;5.70;99.90;;;;;;4966700;28;20236;-71
2023/04/08 02:36:01;;;;;;;33.47;20.70;;;5.70;99.90;;;;;;4953626;28;20205;-72
2023/04/08 02:38:29;;;;;;;36.17;20.40;;;5.70;99.90;;;;;;4968019;28;20205;-72
2023/04/08 02:40:55;;;;;;;35.87;23.10;;;5.70;99.90;;;;;;4968534;28;20206;-71
2023/04/08 02:43:21;;;;;;;37.00;21.43;;;5.70;99.90;;;;;;4967239;28;20252;-70
2023/04/08 02:45:46;;;;;;;31.13;20.00;;;5.70;99.90;;;;;;4965161;28;20240;-71
2023/04/08 02:48:12;;;;;;;34.47;21.93;;;5.70;99.90;;;;;;4966602;28;20201;-72
2023/04/08 02:50:38;;;;;;;35.10;19.17;;;5.70;99.90;;;;;;4968356;28;20197;-71
2023/04/08 02:53:04;;;;;;;33.93;20.37;;;5.60;99.90;;;;;;4966338;28;20213;-71
2023/04/08 02:55:29;;;;;;;34.97;20.67;;;5.60;99.90;;;;;;4969357;28;20542;-72
2023/04/08 02:57:55;;;;;;;36.53;20.93;;;5.70;99.90;;;;;;4964502;28;20205;-67
2023/04/08 03:00:20;;;;;;;39.53;23.50;;;5.60;99.90;;;;;;4965373;28;20233;-67
2023/04/08 03:02:46;;;;;;;36.63;21.87;;;5.60;99.90;;;;;;4967854;28;20371;-67
2023/04/08 03:05:11;;;;;;;34.03;22.20;;;5.60;99.90;;;;;;4967903;28;20200;-71
2023/04/08 03:07:37;;;;;;;35.23;20.60;;;5.60;99.90;;;;;;4950069;28;20580;-69
2023/04/08 03:10:03;;;;;;;32.73;19.87;;;5.70;99.90;;;;;;4969001;28;20198;-68
2023/04/08 03:12:30;;;;;;;37.07;21.30;;;5.60;99.90;;;;;;4966364;28;20208;-70
2023/04/08 03:14:55;;;;;;;30.50;20.93;;;5.70;99.90;;;;;;4964909;28;20209;-69
2023/04/08 03:17:21;;;;;;;33.23;21.40;;;5.60;99.90;;;;;;4969122;28;20448;-68
2023/04/08 03:19:46;;;;;;;33.13;20.27;;;5.60;99.90;;;;;;4975333;28;20211;-68
2023/04/08 03:22:12;;;;;;;38.33;21.00;;;5.60;99.90;;;;;;4965975;28;20197;-68
2023/04/08 03:24:38;;;;;;;35.83;20.93;;;5.60;99.90;;;;;;4963780;28;20279;-68
2023/04/08 03:27:04;;;;;;;36.43;21.73;;;5.60;99.90;;;;;;4966273;28;20197;-69
2023/04/08 03:29:30;;;;;;;38.67;22.03;;;5.60;99.90;;;;;;4964457;28;20197;-68
2023/04/08 03:31:55;;;;;;;39.67;22.23;;;5.60;99.90;;;;;;4951199;28;20208;-68
2023/04/08 03:34:20;;;;;;;38.37;22.90;;;5.60;99.90;;;;;;4966731;28;20675;-68
2023/04/08 03:36:46;;;;;;;39.13;22.70;;;5.60;99.90;;;;;;4966743;28;20458;-69
2023/04/08 03:39:11;;;;;;;40.47;23.30;;;5.60;99.90;;;;;;4967947;28;20908;-68
2023/04/08 03:41:37;;;;;;;38.20;23.23;;;5.60;99.90;;;;;;4965113;28;20212;-69
2023/04/08 03:44:03;;;;;;;36.73;21.97;;;5.60;99.90;;;;;;4965913;28;20213;-69
2023/04/08 03:46:28;;;;;;;39.47;23.33;;;5.70;99.90;;;;;;4966258;28;20200;-70
2023/04/08 03:48:54;;;;;;;37.70;23.13;;;5.60;99.90;;;;;;4965881;28;20197;-69
2023/04/08 03:51:20;;;;;;;37.80;21.97;;;5.70;99.90;;;;;;4965949;28;20215;-68
2023/04/08 03:53:47;;;;;;;35.90;22.83;;;5.70;99.90;;;;;;4965986;28;20197;-66
2023/04/08 03:56:12;;;;;;;45.20;24.87;;;5.70;99.90;;;;;;4964155;28;20318;-66
2023/04/08 03:58:38;;;;;;;38.33;22.73;;;5.70;99.90;;;;;;4969366;28;20232;-66
2023/04/08 04:01:03;;;;;;;40.80;23.57;;;5.70;99.90;;;;;;4962600;28;20281;-66
2023/04/08 04:03:29;;;;;;;39.67;23.73;;;5.70;99.90;;;;;;4967590;28;20217;-65
2023/04/08 04:05:54;;;;;;;37.10;22.10;;;5.60;99.90;;;;;;4965481;28;20300;-65
2023/04/08 04:08:20;;;;;;;41.47;23.50;;;5.70;99.90;;;;;;4965308;28;20236;-66
2023/04/08 04:10:45;;;;;;;39.23;22.17;;;5.70;99.90;;;;;;4965412;28;20205;-66
2023/04/08 04:13:11;;;;;;;39.87;23.27;;;5.70;99.90;;;;;;4966034;28;20698;-65
2023/04/08 04:15:40;;;;;;;38.50;22.60;;;5.70;99.90;;;;;;4968621;28;20228;-67
2023/04/08 04:18:06;;;;;;;36.10;22.80;;;5.60;99.90;;;;;;4962135;28;20198;-66
2023/04/08 04:20:31;;;;;;;40.30;26.07;;;5.70;99.90;;;;;;4964732;28;20563;-66
2023/04/08 04:22:57;;;;;;;38.03;23.27;;;5.70;99.90;;;;;;4968802;28;20202;-66
2023/04/08 04:25:22;;;;;;;36.10;23.00;;;5.70;99.90;;;;;;4963868;28;20232;-66
2023/04/08 04:27:48;;;;;;;50.80;24.73;;;5.70;99.90;;;;;;4966246;28;20201;-65
2023/04/08 04:30:18;;;;;;;40.10;23.90;;;5.70;99.90;;;;;;4966262;28;20200;-65
2023/04/08 04:32:44;;;;;;;42.77;24.40;;;5.80;99.90;;;;;;4965506;28;20278;-65
2023/04/08 04:35:10;;;;;;;37.10;22.57;;;5.70;99.90;;;;;;4965973;28;20200;-65
2023/04/08 04:37:35;;;;;;;41.63;23.40;;;5.70;99.90;;;;;;4965676;28;20197;-65
2023/04/08 04:40:02;;;;;;;34.80;21.57;;;5.70;99.90;;;;;;4966148;28;20205;-64
2023/04/08 04:42:27;;;;;;;43.47;22.07;;;5.80;99.90;;;;;;4965926;28;20205;-67
2023/04/08 04:44:56;;;;;;;38.30;23.20;;;5.80;99.90;;;;;;4964201;28;20696;-66
2023/04/08 04:47:24;;;;;;;37.97;21.87;;;5.80;99.90;;;;;;4968084;28;20643;-66
2023/04/08 04:49:49;;;;;;;38.53;22.60;;;5.80;99.90;;;;;;4965392;28;20193;-66
2023/04/08 04:52:15;;;;;;;41.53;22.27;;;5.80;99.90;;;;;;4967048;28;20745;-65
2023/04/08 04:54:40;;;;;;;39.80;21.87;;;5.80;99.90;;;;;;4964448;28;20205;-66
2023/04/08 04:57:06;;;;;;;33.23;21.17;;;5.80;99.90;;;;;;4966225;28;20664;-66
2023/04/08 04:59:31;;;;;;;46.80;23.20;;;5.80;99.90;;;;;;4965883;28;20212;-65
2023/04/08 05:01:57;;;;;;;37.17;22.50;;;5.80;99.90;;;;;;4963286;28;20201;-65
2023/04/08 05:04:23;;;;;;;43.37;25.37;;;5.80;99.90;;;;;;4964753;28;20218;-66
2023/04/08 05:06:49;;;;;;;37.03;21.83;;;5.80;99.90;;;;;;4965096;28;20408;-65
2023/04/08 05:09:14;;;;;;;34.20;21.53;;;5.80;99.90;;;;;;4965364;28;21024;-66
2023/04/08 05:11:40;;;;;;;37.67;22.07;;;5.80;99.90;;;;;;4969457;28;20209;-66
2023/04/08 05:14:06;;;;;;;34.23;21.70;;;5.80;99.90;;;;;;4969561;28;20207;-65
2023/04/08 05:16:32;;;;;;;38.93;22.73;;;5.90;99.90;;;;;;4970765;28;20259;-65
2023/04/08 05:18:57;;;;;;;35.90;22.40;;;5.90;99.90;;;;;;4967245;28;20676;-65
2023/04/08 05:21:23;;;;;;;40.13;22.40;;;5.90;99.90;;;;;;4969548;28;20766;-66
2023/04/08 05:23:51;;;;;;;42.00;22.43;;;5.90;99.90;;;;;;4951178;28;20267;-66
2023/04/08 05:26:23;;;;;;;36.80;22.87;;;5.90;99.90;;;;;;4972604;28;20333;-66
2023/04/08 05:28:50;;;;;;;37.43;22.63;;;5.90;99.90;;;;;;4963063;28;20221;-66
2023/04/08 05:31:16;;;;;;;36.03;22.53;;;5.90;99.90;;;;;;4969142;28;20678;-65
2023/04/08 05:33:41;;;;;;;38.37;23.10;;;6.00;99.90;;;;;;4969266;28;20232;-65
2023/04/08 05:36:07;;;;;;;39.13;22.63;;;6.00;99.90;;;;;;4969091;28;20212;-66
2023/04/08 05:38:32;;;;;;;38.93;24.10;;;6.00;99.90;;;;;;4969321;28;20740;-66
2023/04/08 05:40:58;;;;;;;37.30;24.17;;;6.00;99.90;;;;;;4966615;28;20202;-65
2023/04/08 05:43:24;;;;;;;32.77;22.77;;;6.10;99.90;;;;;;4970733;28;20220;-65
2023/04/08 05:45:50;;;;;;;38.47;23.43;;;6.10;99.90;;;;;;4966292;28;22736;-66
2023/04/08 05:48:15;;;;;;;38.73;24.07;;;6.10;99.90;;;;;;4971249;28;20659;-65
2023/04/08 05:50:41;;;;;;;38.97;23.67;;;6.20;99.90;;;;;;4965045;28;20972;-65
2023/04/08 05:53:08;;;;;;;35.10;22.37;;;6.20;99.90;;;;;;4967192;28;20288;-64
2023/04/08 05:55:33;;;;;;;46.03;26.57;;;6.20;99.90;;;;;;4969012;28;20213;-65
2023/04/08 05:57:59;;;;;;;39.13;23.80;;;6.30;99.90;;;;;;4969381;28;20211;-65
2023/04/08 06:00:25;;;;;;;40.77;24.07;;;6.30;99.90;;;;;;4969417;28;20204;-65
2023/04/08 06:02:50;;;;;;;40.77;24.07;;;6.30;99.90;;;;;;4968468;28;20595;-65
2023/04/08 06:05:16;;;;;;;34.17;24.00;;;6.30;99.90;;;;;;4967221;28;20193;-66
2023/04/08 06:07:41;;;;;;;42.23;24.83;;;6.40;99.90;;;;;;4967521;28;20805;-67
2023/04/08 06:10:07;;;;;;;46.17;25.40;;;6.40;99.90;;;;;;4967362;28;20220;-66
2023/04/08 06:12:39;;;;;;;38.80;24.97;;;6.30;99.90;;;;;;4970560;28;20241;-65
2023/04/08 06:15:06;;;;;;;39.13;23.27;;;6.40;99.90;;;;;;4964909;28;20259;-66
2023/04/08 06:17:32;;;;;;;41.93;24.70;;;6.30;99.90;;;;;;4948499;28;20557;-65
2023/04/08 06:19:57;;;;;;;38.20;24.13;;;6.30;99.90;;;;;;4967146;28;20216;-66
2023/04/08 06:22:22;;;;;;;44.63;25.10;;;6.40;99.90;;;;;;4970619;28;20205;-66
2023/04/08 06:24:48;;;;;;;42.33;24.90;;;6.50;99.90;;;;;;4967592;28;20338;-66
2023/04/08 06:27:14;;;;;;;36.13;25.77;;;6.50;99.90;;;;;;4968786;28;20567;-66
2023/04/08 06:29:40;;;;;;;43.83;25.60;;;6.50;99.90;;;;;;4966759;28;20193;-66
2023/04/08 06:32:06;;;;;;;40.83;24.07;;;6.60;99.90;;;;;;4967274;28;20201;-66
2023/04/08 06:34:31;;;;;;;40.70;24.90;;;6.60;99.90;;;;;;4967758;28;20770;-66
2023/04/08 06:36:57;;;;;;;38.10;24.70;;;6.70;99.90;;;;;;4967245;28;20208;-65
2023/04/08 06:39:23;;;;;;;38.60;25.57;;;6.70;99.90;;;;;;4967331;28;20260;-65
2023/04/08 06:41:48;;;;;;;45.63;26.20;;;6.90;99.90;;;;;;4967152;28;20205;-65
2023/04/08 06:44:14;;;;;;;43.10;25.30;;;7.00;99.90;;;;;;4970845;28;20220;-65
2023/04/08 06:46:40;;;;;;;46.70;24.03;;;7.20;99.90;;;;;;4963751;28;20296;-65
2023/04/08 06:49:05;;;;;;;39.17;24.30;;;7.20;99.90;;;;;;4950267;28;20667;-65
2023/04/08 06:51:31;;;;;;;37.17;23.83;;;7.20;99.90;;;;;;4968135;28;20224;-66
2023/04/08 06:53:57;;;;;;;37.83;23.90;;;7.30;99.90;;;;;;4968576;28;20706;-66
2023/04/08 06:56:25;;;;;;;42.17;25.07;;;7.30;99.90;;;;;;4964826;28;20309;-65
2023/04/08 06:58:50;;;;;;;39.80;23.97;;;7.20;99.90;;;;;;4966947;28;20211;-65
2023/04/08 07:01:16;;;;;;;38.77;25.23;;;7.30;99.90;;;;;;4966577;28;20204;-65
2023/04/08 07:03:42;;;;;;;36.73;24.40;;;7.40;99.90;;;;;;4967041;28;20244;-65
2023/04/08 07:06:07;;;;;;;41.47;26.77;;;7.50;99.90;;;;;;4967225;28;20707;-66
2023/04/08 07:08:33;;;;;;;37.60;25.13;;;7.60;99.90;;;;;;4965425;28;20220;-65
2023/04/08 07:10:58;;;;;;;37.77;22.23;;;7.50;99.90;;;;;;4966968;28;20252;-65
2023/04/08 07:13:24;;;;;;;39.90;24.30;;;7.40;99.90;;;;;;4977921;28;20196;-66
2023/04/08 07:15:49;;;;;;;33.27;21.80;;;7.40;99.90;;;;;;4965064;28;20917;-66
2023/04/08 07:18:14;;;;;;;35.80;23.17;;;7.50;99.90;;;;;;4967698;28;20208;-66
2023/04/08 07:20:40;;;;;;;38.07;22.97;;;7.60;99.90;;;;;;4965663;28;20694;-66
2023/04/08 07:23:06;;;;;;;39.13;26.10;;;7.70;99.90;;;;;;4966697;28;20543;-66
2023/04/08 07:25:34;;;;;;;37.77;23.70;;;7.60;99.90;;;;;;4966280;28;20220;-65
2023/04/08 07:27:59;;;;;;;40.60;23.67;;;7.60;99.90;;;;;;4966464;28;20204;-65
2023/04/08 07:30:25;;;;;;;42.33;23.73;;;7.70;99.90;;;;;;4966304;28;20220;-66
2023/04/08 07:32:51;;;;;;;43.67;24.57;;;7.80;99.90;;;;;;4968707;28;20769;-65
2023/04/08 07:35:23;;;;;;;40.03;23.37;;;7.70;99.90;;;;;;4961894;28;20548;-66
2023/04/08 07:37:48;;;;;;;33.53;23.40;;;7.90;99.90;;;;;;4965953;28;20205;-66
2023/04/08 07:40:14;;;;;;;41.37;24.47;;;8.00;99.90;;;;;;4965533;28;20656;-65
2023/04/08 07:42:40;;;;;;;35.73;21.73;;;8.20;99.90;;;;;;4965961;28;20272;-65
2023/04/08 07:45:06;;;;;;;33.97;22.40;;;8.30;99.90;;;;;;4962246;28;20287;-66
2023/04/08 07:47:32;;;;;;;38.57;23.63;;;8.40;99.90;;;;;;4966889;28;20706;-65
2023/04/08 07:49:57;;;;;;;40.53;24.20;;;8.40;99.90;;;;;;4968872;28;20202;-66
2023/04/08 07:52:23;;;;;;;35.10;23.07;;;8.30;99.90;;;;;;4967296;28;20708;-65
2023/04/08 07:54:48;;;;;;;33.47;23.37;;;8.30;99.90;;;;;;4966964;28;20239;-66
2023/04/08 07:57:13;;;;;;;37.67;23.60;;;8.30;99.90;;;;;;4964138;28;20667;-66
2023/04/08 07:59:39;;;;;;;39.00;23.83;;;8.40;99.90;;;;;;4966577;28;20203;-66
2023/04/08 08:02:05;;;;;;;33.23;21.77;;;8.30;99.90;;;;;;4963877;28;20201;-62
2023/04/08 08:04:31;;;;;;;37.77;23.73;;;8.30;99.90;;;;;;4967235;28;20241;-62
2023/04/08 08:06:56;;;;;;;38.47;24.00;;;8.20;99.90;;;;;;4966724;28;20286;-62
2023/04/08 08:09:22;;;;;;;40.23;23.37;;;8.20;99.90;;;;;;4964273;28;20275;-62
2023/04/08 08:11:47;;;;;;;34.13;22.00;;;8.20;99.90;;;;;;4965876;28;20671;-63
2023/04/08 08:14:13;;;;;;;36.13;22.97;;;8.20;99.90;;;;;;4966508;28;20200;-62
2023/04/08 08:16:39;;;;;;;34.97;23.03;;;8.30;99.90;;;;;;4966033;28;20595;-63
2023/04/08 08:19:06;;;;;;;37.97;22.43;;;8.40;99.90;;;;;;4965954;28;20205;-64
2023/04/08 08:21:32;;;;;;;35.33;21.53;;;8.60;99.90;;;;;;4963709;28;20879;-66
2023/04/08 08:23:58;;;;;;;36.20;23.50;;;8.60;99.90;;;;;;4966189;28;20244;-64
2023/04/08 08:26:24;;;;;;;35.83;22.53;;;8.70;99.90;;;;;;4965611;28;20258;-64
2023/04/08 08:28:49;;;;;;;30.70;20.47;;;8.70;99.90;;;;;;4966644;28;20205;-64
2023/04/08 08:31:15;;;;;;;37.40;22.83;;;8.80;99.90;;;;;;4966681;28;20213;-64
2023/04/08 08:33:40;;;;;;;33.73;22.93;;;8.80;99.90;;;;;;4964219;28;20775;-63
2023/04/08 08:36:06;;;;;;;31.60;20.97;;;8.90;99.90;;;;;;4965828;28;20275;-64
2023/04/08 08:38:32;;;;;;;35.20;22.73;;;9.00;99.90;;;;;;4966875;28;20208;-64
2023/04/08 08:40:59;;;;;;;37.67;22.50;;;9.10;99.90;;;;;;4964355;28;20991;-64
2023/04/08 08:43:25;;;;;;;34.80;21.23;;;9.20;99.90;;;;;;4966687;28;20304;-64
2023/04/08 08:45:51;;;;;;;33.10;20.97;;;9.40;99.90;;;;;;4967983;28;20209;-64
2023/04/08 08:48:17;;;;;;;33.43;21.63;;;9.50;99.90;;;;;;4970254;28;20708;-63
2023/04/08 08:50:42;;;;;;;32.93;22.00;;;9.60;99.90;;;;;;4968773;28;20359;-64
2023/04/08 08:53:08;;;;;;;33.00;22.80;;;9.70;99.90;;;;;;4971373;28;20206;-64
2023/04/08 08:55:34;;;;;;;31.63;22.13;;;9.90;99.90;;;;;;4966231;28;20255;-64
2023/04/08 08:58:03;;;;;;;31.93;21.70;;;10.20;99.90;;;;;;4968156;28;20203;-63
2023/04/08 09:00:34;;;;;;;30.67;20.40;;;10.40;99.90;;;;;;4969332;28;20570;-62
2023/04/08 09:03:29;;;;;;;30.33;21.23;;;10.40;99.90;;;;;;4968515;28;20671;-62
2023/04/08 09:05:59;;;;;;;31.67;19.90;;;10.50;99.90;;;;;;4954530;28;20214;-62
2023/04/08 09:08:31;;;;;;;27.63;19.13;;;10.60;99.90;;;;;;4972050;28;20209;-62
2023/04/08 09:11:17;;;;;;;30.77;20.17;;;10.70;99.90;;;;;;4968020;28;20221;-63
2023/04/08 09:13:44;;;;;;;33.27;21.87;;;10.70;99.90;;;;;;4967720;28;20291;-64
2023/04/08 09:16:11;;;;;;;29.57;19.83;;;10.50;99.90;;;;;;4969397;28;20215;-65
2023/04/08 09:18:38;;;;;;;31.77;19.90;;;10.50;99.90;;;;;;4969018;28;20357;-64
2023/04/08 09:21:04;;;;;;;28.50;21.47;;;10.40;99.90;;;;;;4969630;28;20701;-64
2023/04/08 09:23:42;;;;;;;28.23;19.70;;;10.40;99.90;;;;;;4967128;28;20229;-66
2023/04/08 09:26:15;;;;;;;29.97;20.10;;;10.30;99.90;;;;;;4971287;28;20204;-63
2023/04/08 09:28:42;;;;;;;26.93;19.03;;;10.30;99.90;;;;;;4968466;28;20213;-64
2023/04/08 09:31:22;;;;;;;30.20;19.10;;;10.40;99.90;;;;;;4966692;28;20597;-64
2023/04/08 09:33:53;;;;;;;28.47;18.90;;;10.50;99.90;;;;;;4968152;28;20321;-64
2023/04/08 09:36:19;;;;;;;31.07;19.73;;;10.60;99.90;;;;;;4968548;28;20251;-64
2023/04/08 09:38:45;;;;;;;26.97;19.23;;;10.70;99.90;;;;;;4967225;28;20215;-63
2023/04/08 09:41:15;;;;;;;29.97;19.73;;;10.50;99.90;;;;;;4969179;28;20206;-64
2023/04/08 09:43:50;;;;;;;27.07;20.23;;;10.40;99.90;;;;;;4966564;28;20232;-63
2023/04/08 09:46:17;;;;;;;29.50;20.83;;;10.70;99.90;;;;;;4969235;28;20272;-64
2023/04/08 09:48:53;;;;;;;28.47;20.80;;;11.00;99.90;;;;;;4969200;28;20201;-64
2023/04/08 09:51:22;;;;;;;25.50;18.73;;;11.10;99.90;;;;;;4968752;28;20206;-63
2023/04/08 09:53:57;;;;;;;33.87;20.93;;;11.00;99.90;;;;;;4967184;28;20202;-63
2023/04/08 09:56:24;;;;;;;31.87;20.00;;;10.90;99.90;;;;;;4965151;28;20518;-65
2023/04/08 09:59:06;;;;;;;28.87;19.97;;;10.70;99.90;;;;;;4969803;28;20295;-81
2023/04/08 10:01:38;;;;;;;28.27;19.10;;;10.70;99.90;;;;;;4970223;28;20248;-64
2023/04/08 10:04:08;;;;;;;28.80;20.10;;;10.70;99.90;;;;;;4967284;28;20264;-64
2023/04/08 10:06:35;;;;;;;26.97;19.97;;;10.50;99.90;;;;;;4966158;28;20235;-64
2023/04/08 10:09:01;;;;;;;28.63;18.97;;;10.60;99.90;;;;;;4967708;28;20722;-63
2023/04/08 10:11:28;;;;;;;28.83;19.37;;;10.70;99.90;;;;;;4949150;28;20309;-64
2023/04/08 10:13:54;;;;;;;26.23;18.70;;;10.50;99.90;;;;;;4967439;28;20201;-63
2023/04/08 10:16:26;;;;;;;28.00;19.70;;;10.50;99.90;;;;;;4965696;28;20794;-65
2023/04/08 10:18:54;;;;;;;26.63;18.93;;;10.50;99.90;;;;;;4968860;28;20218;-64
2023/04/08 10:21:46;;;;;;;30.70;21.47;;;10.60;99.90;;;;;;4967418;28;20544;-63
2023/04/08 10:24:12;;;;;;;24.10;19.13;;;10.50;99.90;;;;;;4967539;28;20225;-65
2023/04/08 10:26:44;;;;;;;26.93;20.37;;;10.50;99.90;;;;;;4968512;28;20215;-63
2023/04/08 10:29:28;;;;;;;31.87;21.30;;;10.50;99.90;;;;;;4967499;28;20282;-64
2023/04/08 10:31:53;;;;;;;26.73;20.70;;;10.60;99.90;;;;;;4967189;28;20513;-64
2023/04/08 10:34:21;;;;;;;24.00;19.07;;;11.00;99.90;;;;;;4967241;28;20521;-65
2023/04/08 10:36:47;;;;;;;26.10;19.93;;;11.30;99.90;;;;;;4965356;28;20234;-64
2023/04/08 10:39:17;;;;;;;25.20;18.23;;;11.70;99.90;;;;;;4967377;28;20207;-65
2023/04/08 10:41:46;;;;;;;26.90;20.20;;;12.10;99.90;;;;;;4967739;28;20212;-64
2023/04/08 10:44:43;;;;;;;25.83;18.30;;;12.50;99.90;;;;;;4967894;28;20298;-66
2023/04/08 10:47:08;;;;;;;24.47;19.30;;;12.60;99.90;;;;;;4966533;28;20216;-64
2023/04/08 10:49:34;;;;;;;23.93;18.47;;;12.60;99.90;;;;;;4966172;28;20206;-63
2023/04/08 10:52:00;;;;;;;18.20;15.77;;;12.60;99.90;;;;;;4965814;28;20198;-65
2023/04/08 10:54:26;;;;;;;21.90;15.97;;;13.00;99.90;;;;;;4966236;28;20204;-64
2023/04/08 10:56:52;;;;;;;22.53;14.93;;;13.00;99.90;;;;;;4967759;28;20295;-63
2023/04/08 10:59:31;;;;;;;20.33;14.63;;;12.90;99.90;;;;;;4967638;28;20239;-65
2023/04/08 11:01:57;;;;;;;21.00;16.10;;;12.80;99.90;;;;;;4966905;28;20464;-63
2023/04/08 11:04:24;;;;;;;19.70;15.03;;;12.70;99.90;;;;;;4966006;28;20295;-63
2023/04/08 11:06:50;;;;;;;20.57;16.30;;;12.40;99.90;;;;;;4967781;28;20698;-63
2023/04/08 11:09:16;;;;;;;19.17;15.33;;;12.30;99.90;;;;;;4965746;28;20193;-63
2023/04/08 11:11:43;;;;;;;20.50;14.73;;;12.40;99.90;;;;;;4967499;28;20212;-63
2023/04/08 11:14:09;;;;;;;19.50;14.67;;;12.30;99.90;;;;;;4965109;28;20609;-65
2023/04/08 11:16:37;;;;;;;19.50;15.40;;;12.30;99.90;;;;;;4964688;28;20672;-64
2023/04/08 11:19:04;;;;;;;18.70;15.60;;;12.30;99.90;;;;;;4967869;28;20221;-65
2023/04/08 11:21:31;;;;;;;20.33;15.83;;;12.50;99.90;;;;;;4970658;28;20371;-65
2023/04/08 11:23:57;;;;;;;24.73;15.63;;;12.80;99.90;;;;;;4967649;28;20230;-65
2023/04/08 11:26:24;;;;;;;18.93;15.60;;;13.50;99.90;;;;;;4967786;28;20205;-64
2023/04/08 11:28:51;;;;;;;18.00;14.40;;;13.60;99.90;;;;;;4967727;28;20201;-65
2023/04/08 11:31:17;;;;;;;15.77;12.80;;;13.40;99.90;;;;;;4964014;28;20193;-66
2023/04/08 11:33:47;;;;;;;17.97;12.90;;;13.50;99.90;;;;;;4967595;28;20239;-65
2023/04/08 11:36:13;;;;;;;19.57;14.87;;;13.50;99.90;;;;;;4967478;28;20300;-65
2023/04/08 11:38:42;;;;;;;18.30;14.73;;;13.20;99.90;;;;;;4967889;28;20296;-65
2023/04/08 11:41:08;;;;;;;19.00;14.80;;;13.00;99.90;;;;;;4966829;28;20316;-74
2023/04/08 11:43:35;;;;;;;17.90;13.97;;;13.30;99.90;;;;;;4971436;28;20331;-73
2023/04/08 11:46:11;;;;;;;17.83;13.17;;;13.60;99.90;;;;;;4962565;28;20253;-73
2023/04/08 11:48:37;;;;;;;20.77;15.57;;;13.70;99.90;;;;;;4967278;28;20201;-71
2023/04/08 11:51:04;;;;;;;22.23;16.13;;;13.70;99.90;;;;;;4968334;28;20315;-73
2023/04/08 11:53:30;;;;;;;18.13;15.03;;;13.40;99.90;;;;;;4964943;28;20213;-72
2023/04/08 11:55:55;;;;;;;21.43;15.83;;;13.20;99.90;;;;;;4964961;28;20259;-71
2023/04/08 11:58:21;;;;;;;22.77;15.47;;;13.20;99.90;;;;;;4963809;28;20578;-72
2023/04/08 12:00:48;;;;;;;21.40;15.80;;;13.40;99.90;;;;;;4966133;28;20216;-72
2023/04/08 12:03:13;;;;;;;21.53;14.87;;;13.50;99.90;;;;;;4965699;28;20663;-72
2023/04/08 12:05:39;;;;;;;19.00;15.30;;;13.50;99.90;;;;;;4965971;28;20193;-72
2023/04/08 12:08:05;;;;;;;21.20;15.90;;;13.40;99.90;;;;;;4967415;28;20212;-73
2023/04/08 12:10:31;;;;;;;21.53;16.53;;;13.50;99.90;;;;;;4967587;28;20212;-72
2023/04/08 12:12:56;;;;;;;17.77;14.73;;;13.40;99.90;;;;;;4966759;28;20459;-73
2023/04/08 12:15:22;;;;;;;22.93;14.60;;;13.40;99.90;;;;;;4967333;28;20215;-72
2023/04/08 12:17:47;;;;;;;18.13;14.73;;;13.60;99.90;;;;;;4949624;28;20663;-73
2023/04/08 12:20:13;;;;;;;20.07;16.13;;;14.10;99.90;;;;;;4964187;28;20316;-73
2023/04/08 12:22:38;;;;;;;21.13;15.37;;;13.90;99.90;;;;;;4965426;28;20568;-74
2023/04/08 12:25:05;;;;;;;22.67;16.53;;;13.80;99.90;;;;;;4968229;28;20209;-73
2023/04/08 12:27:34;;;;;;;19.80;15.63;;;13.60;99.90;;;;;;4967414;28;20204;-74
2023/04/08 12:30:01;;;;;;;20.97;16.17;;;13.70;99.90;;;;;;4965446;28;20587;-72
2023/04/08 12:32:27;;;;;;;18.83;16.60;;;13.90;99.90;;;;;;4965492;28;20707;-72